sensor_id;sensor_type;location;lat;lon;timestamp;temperature;humidity
1614;DHT22;800;48.824;9.346;2022-08-16T00:02:17;22.70;65.70
1614;DHT22;800;48.824;9.346;2022-08-16T00:04:43;22.80;65.30
1614;DHT22;800;48.824;9.346;2022-08-16T00:07:09;22.80;65.00
1614;DHT22;800;48.824;9.346;2022-08-16T00:09:34;22.90;64.40
1614;DHT22;800;48.824;9.346;2022-08-16T00:12:00;23.00;63.90
1614;DHT22;800;48.824;9.346;2022-08-16T00:14:28;22.90;64.30
1614;DHT22;800;48.824;9.346;2022-08-16T00:16:54;22.70;65.60
1614;DHT22;800;48.824;9.346;2022-08-16T00:19:25;22.80;65.20
1614;DHT22;800;48.824;9.346;2022-08-16T00:21:52;22.70;65.90
1614;DHT22;800;48.824;9.346;2022-08-16T00:24:18;22.60;66.20
1614;DHT22;800;48.824;9.346;2022-08-16T00:26:44;22.80;65.70
1614;DHT22;800;48.824;9.346;2022-08-16T00:29:11;22.90;65.00
1614;DHT22;800;48.824;9.346;2022-08-16T00:31:37;22.90;64.70
1614;DHT22;800;48.824;9.346;2022-08-16T00:34:03;23.00;64.10
1614;DHT22;800;48.824;9.346;2022-08-16T00:36:29;23.10;63.50
1614;DHT22;800;48.824;9.346;2022-08-16T00:38:55;22.80;64.80
1614;DHT22;800;48.824;9.346;2022-08-16T00:41:20;22.60;65.90
1614;DHT22;800;48.824;9.346;2022-08-16T00:43:46;22.70;66.20
1614;DHT22;800;48.824;9.346;2022-08-16T00:48:44;22.90;64.60
1614;DHT22;800;48.824;9.346;2022-08-16T00:51:11;22.90;64.60
1614;DHT22;800;48.824;9.346;2022-08-16T00:53:37;22.80;64.90
1614;DHT22;800;48.824;9.346;2022-08-16T00:56:07;22.60;66.00
1614;DHT22;800;48.824;9.346;2022-08-16T00:58:36;22.40;66.70
1614;DHT22;800;48.824;9.346;2022-08-16T01:01:04;22.50;66.30
1614;DHT22;800;48.824;9.346;2022-08-16T01:03:30;22.70;65.90
1614;DHT22;800;48.824;9.346;2022-08-16T01:05:57;22.60;65.60
1614;DHT22;800;48.824;9.346;2022-08-16T01:08:25;22.50;66.20
1614;DHT22;800;48.824;9.346;2022-08-16T01:10:51;22.60;66.20
1614;DHT22;800;48.824;9.346;2022-08-16T01:13:23;22.50;66.20
1614;DHT22;800;48.824;9.346;2022-08-16T01:16:00;22.50;66.40
1614;DHT22;800;48.824;9.346;2022-08-16T01:26:39;22.70;65.90
1614;DHT22;800;48.824;9.346;2022-08-16T01:29:10;22.70;65.40
1614;DHT22;800;48.824;9.346;2022-08-16T01:31:37;22.70;65.40
1614;DHT22;800;48.824;9.346;2022-08-16T01:34:02;22.70;65.20
1614;DHT22;800;48.824;9.346;2022-08-16T01:36:29;22.50;66.20
1614;DHT22;800;48.824;9.346;2022-08-16T01:38:54;22.30;67.30
1614;DHT22;800;48.824;9.346;2022-08-16T01:41:24;21.90;68.80
1614;DHT22;800;48.824;9.346;2022-08-16T01:43:51;21.70;69.60
1614;DHT22;800;48.824;9.346;2022-08-16T01:46:37;21.60;70.40
1614;DHT22;800;48.824;9.346;2022-08-16T01:49:13;21.60;70.60
1614;DHT22;800;48.824;9.346;2022-08-16T01:51:42;21.80;69.40
1614;DHT22;800;48.824;9.346;2022-08-16T01:54:08;22.10;68.00
1614;DHT22;800;48.824;9.346;2022-08-16T01:56:34;22.20;67.10
1614;DHT22;800;48.824;9.346;2022-08-16T01:59:03;22.30;66.40
1614;DHT22;800;48.824;9.346;2022-08-16T02:01:29;22.40;65.90
1614;DHT22;800;48.824;9.346;2022-08-16T02:03:56;22.50;65.50
1614;DHT22;800;48.824;9.346;2022-08-16T02:06:22;22.50;65.20
1614;DHT22;800;48.824;9.346;2022-08-16T02:08:47;22.40;65.00
1614;DHT22;800;48.824;9.346;2022-08-16T02:11:14;22.40;65.40
1614;DHT22;800;48.824;9.346;2022-08-16T02:13:40;22.50;65.10
1614;DHT22;800;48.824;9.346;2022-08-16T02:16:07;22.40;65.20
1614;DHT22;800;48.824;9.346;2022-08-16T02:18:33;22.30;65.60
1614;DHT22;800;48.824;9.346;2022-08-16T02:20:59;22.10;67.60
1614;DHT22;800;48.824;9.346;2022-08-16T02:23:26;22.00;67.60
1614;DHT22;800;48.824;9.346;2022-08-16T02:25:52;22.00;67.40
1614;DHT22;800;48.824;9.346;2022-08-16T02:28:18;22.00;67.20
1614;DHT22;800;48.824;9.346;2022-08-16T02:30:44;22.00;67.40
1614;DHT22;800;48.824;9.346;2022-08-16T02:33:10;21.80;67.70
1614;DHT22;800;48.824;9.346;2022-08-16T02:35:36;21.80;67.80
1614;DHT22;800;48.824;9.346;2022-08-16T02:38:03;21.90;67.30
1614;DHT22;800;48.824;9.346;2022-08-16T02:40:28;22.00;66.80
1614;DHT22;800;48.824;9.346;2022-08-16T02:42:54;22.10;66.40
1614;DHT22;800;48.824;9.346;2022-08-16T02:45:23;22.20;66.30
1614;DHT22;800;48.824;9.346;2022-08-16T02:47:51;22.20;66.00
1614;DHT22;800;48.824;9.346;2022-08-16T02:50:17;22.10;66.60
1614;DHT22;800;48.824;9.346;2022-08-16T02:52:43;22.00;66.90
1614;DHT22;800;48.824;9.346;2022-08-16T02:55:09;22.00;67.00
1614;DHT22;800;48.824;9.346;2022-08-16T02:57:35;22.10;66.70
1614;DHT22;800;48.824;9.346;2022-08-16T03:00:01;22.20;66.10
1614;DHT22;800;48.824;9.346;2022-08-16T03:02:31;22.30;66.20
1614;DHT22;800;48.824;9.346;2022-08-16T03:04:57;22.20;66.30
1614;DHT22;800;48.824;9.346;2022-08-16T03:07:22;22.10;66.30
1614;DHT22;800;48.824;9.346;2022-08-16T03:09:48;21.90;67.10
1614;DHT22;800;48.824;9.346;2022-08-16T03:12:14;21.90;67.20
1614;DHT22;800;48.824;9.346;2022-08-16T03:14:39;21.90;67.00
1614;DHT22;800;48.824;9.346;2022-08-16T03:17:05;21.80;67.70
1614;DHT22;800;48.824;9.346;2022-08-16T03:19:32;21.90;67.70
1614;DHT22;800;48.824;9.346;2022-08-16T03:21:58;21.80;67.50
1614;DHT22;800;48.824;9.346;2022-08-16T03:24:23;21.70;68.00
1614;DHT22;800;48.824;9.346;2022-08-16T03:26:49;21.70;68.20
1614;DHT22;800;48.824;9.346;2022-08-16T03:29:16;21.50;69.10
1614;DHT22;800;48.824;9.346;2022-08-16T03:31:42;21.60;69.40
1614;DHT22;800;48.824;9.346;2022-08-16T03:34:07;21.60;68.40
1614;DHT22;800;48.824;9.346;2022-08-16T03:36:33;21.60;68.70
1614;DHT22;800;48.824;9.346;2022-08-16T03:38:59;21.40;69.20
1614;DHT22;800;48.824;9.346;2022-08-16T03:41:25;21.40;69.00
1614;DHT22;800;48.824;9.346;2022-08-16T03:43:51;21.40;69.00
1614;DHT22;800;48.824;9.346;2022-08-16T03:46:19;21.20;70.10
1614;DHT22;800;48.824;9.346;2022-08-16T03:48:47;21.30;69.20
1614;DHT22;800;48.824;9.346;2022-08-16T03:51:14;21.20;69.50
1614;DHT22;800;48.824;9.346;2022-08-16T03:53:40;21.30;69.00
1614;DHT22;800;48.824;9.346;2022-08-16T03:56:07;21.20;68.80
1614;DHT22;800;48.824;9.346;2022-08-16T03:58:34;21.10;69.10
1614;DHT22;800;48.824;9.346;2022-08-16T04:01:00;21.10;68.80
1614;DHT22;800;48.824;9.346;2022-08-16T04:03:26;21.30;68.60
1614;DHT22;800;48.824;9.346;2022-08-16T04:05:52;21.30;68.60
1614;DHT22;800;48.824;9.346;2022-08-16T04:08:18;21.20;68.90
1614;DHT22;800;48.824;9.346;2022-08-16T04:10:46;20.90;70.20
1614;DHT22;800;48.824;9.346;2022-08-16T04:13:12;20.90;70.30
1614;DHT22;800;48.824;9.346;2022-08-16T04:15:38;20.60;71.10
1614;DHT22;800;48.824;9.346;2022-08-16T04:18:04;20.20;73.90
1614;DHT22;800;48.824;9.346;2022-08-16T04:20:32;20.30;74.00
1614;DHT22;800;48.824;9.346;2022-08-16T04:22:58;20.40;73.60
1614;DHT22;800;48.824;9.346;2022-08-16T04:25:24;20.50;72.80
1614;DHT22;800;48.824;9.346;2022-08-16T04:27:50;20.40;72.90
1614;DHT22;800;48.824;9.346;2022-08-16T04:30:18;20.40;72.70
1614;DHT22;800;48.824;9.346;2022-08-16T04:32:44;20.40;72.90
1614;DHT22;800;48.824;9.346;2022-08-16T04:35:14;20.60;71.90
1614;DHT22;800;48.824;9.346;2022-08-16T04:37:42;20.70;71.40
1614;DHT22;800;48.824;9.346;2022-08-16T04:40:08;20.80;70.70
1614;DHT22;800;48.824;9.346;2022-08-16T04:42:35;20.90;70.80
1614;DHT22;800;48.824;9.346;2022-08-16T04:45:04;20.90;70.50
1614;DHT22;800;48.824;9.346;2022-08-16T04:47:31;20.80;70.70
1614;DHT22;800;48.824;9.346;2022-08-16T04:49:57;20.90;70.80
1614;DHT22;800;48.824;9.346;2022-08-16T04:52:23;20.80;70.90
1614;DHT22;800;48.824;9.346;2022-08-16T04:54:49;20.80;71.30
1614;DHT22;800;48.824;9.346;2022-08-16T04:57:14;20.90;71.40
1614;DHT22;800;48.824;9.346;2022-08-16T04:59:40;21.00;70.70
1614;DHT22;800;48.824;9.346;2022-08-16T05:02:06;21.10;70.50
1614;DHT22;800;48.824;9.346;2022-08-16T05:04:32;21.10;70.30
1614;DHT22;800;48.824;9.346;2022-08-16T05:06:58;21.20;69.90
1614;DHT22;800;48.824;9.346;2022-08-16T05:09:23;21.40;69.10
1614;DHT22;800;48.824;9.346;2022-08-16T05:11:49;21.50;68.60
1614;DHT22;800;48.824;9.346;2022-08-16T05:14:14;21.50;68.30
1614;DHT22;800;48.824;9.346;2022-08-16T05:16:40;21.70;68.10
1614;DHT22;800;48.824;9.346;2022-08-16T05:19:07;21.80;67.60
1614;DHT22;800;48.824;9.346;2022-08-16T05:21:33;21.80;67.40
1614;DHT22;800;48.824;9.346;2022-08-16T05:24:00;21.70;67.20
1614;DHT22;800;48.824;9.346;2022-08-16T05:26:30;21.80;66.90
1614;DHT22;800;48.824;9.346;2022-08-16T05:28:57;21.60;68.10
1614;DHT22;800;48.824;9.346;2022-08-16T05:31:27;21.80;67.90
1614;DHT22;800;48.824;9.346;2022-08-16T05:33:53;21.90;67.00
1614;DHT22;800;48.824;9.346;2022-08-16T05:36:19;22.00;66.60
1614;DHT22;800;48.824;9.346;2022-08-16T05:38:45;22.00;66.00
1614;DHT22;800;48.824;9.346;2022-08-16T05:41:11;22.00;65.80
1614;DHT22;800;48.824;9.346;2022-08-16T05:43:37;22.10;65.80
1614;DHT22;800;48.824;9.346;2022-08-16T05:46:03;22.30;65.40
1614;DHT22;800;48.824;9.346;2022-08-16T05:48:28;22.30;65.10
1614;DHT22;800;48.824;9.346;2022-08-16T05:50:54;22.20;64.90
1614;DHT22;800;48.824;9.346;2022-08-16T05:53:20;22.20;65.30
1614;DHT22;800;48.824;9.346;2022-08-16T05:55:46;22.10;65.80
1614;DHT22;800;48.824;9.346;2022-08-16T05:58:12;22.20;65.40
1614;DHT22;800;48.824;9.346;2022-08-16T06:00:37;22.20;65.50
1614;DHT22;800;48.824;9.346;2022-08-16T06:03:03;22.40;64.90
1614;DHT22;800;48.824;9.346;2022-08-16T06:05:28;22.50;64.50
1614;DHT22;800;48.824;9.346;2022-08-16T06:07:55;22.60;64.50
1614;DHT22;800;48.824;9.346;2022-08-16T06:10:20;22.60;64.30
1614;DHT22;800;48.824;9.346;2022-08-16T06:12:46;22.60;64.20
1614;DHT22;800;48.824;9.346;2022-08-16T06:15:14;22.70;64.00
1614;DHT22;800;48.824;9.346;2022-08-16T06:17:41;22.70;63.40
1614;DHT22;800;48.824;9.346;2022-08-16T06:20:07;22.50;64.10
1614;DHT22;800;48.824;9.346;2022-08-16T06:22:35;22.60;64.50
1614;DHT22;800;48.824;9.346;2022-08-16T06:25:02;22.70;64.50
1614;DHT22;800;48.824;9.346;2022-08-16T06:27:27;22.70;64.60
1614;DHT22;800;48.824;9.346;2022-08-16T06:29:53;22.70;64.10
1614;DHT22;800;48.824;9.346;2022-08-16T06:32:18;22.50;64.50
1614;DHT22;800;48.824;9.346;2022-08-16T06:34:44;22.60;64.80
1614;DHT22;800;48.824;9.346;2022-08-16T06:37:10;22.70;64.20
1614;DHT22;800;48.824;9.346;2022-08-16T06:39:35;22.80;64.00
1614;DHT22;800;48.824;9.346;2022-08-16T06:42:01;23.00;63.20
1614;DHT22;800;48.824;9.346;2022-08-16T06:44:26;22.80;63.30
1614;DHT22;800;48.824;9.346;2022-08-16T06:46:52;22.70;64.20
1614;DHT22;800;48.824;9.346;2022-08-16T06:49:18;22.80;63.80
1614;DHT22;800;48.824;9.346;2022-08-16T06:51:43;22.80;63.50
1614;DHT22;800;48.824;9.346;2022-08-16T06:54:09;23.00;62.70
1614;DHT22;800;48.824;9.346;2022-08-16T06:56:35;23.30;61.70
1614;DHT22;800;48.824;9.346;2022-08-16T06:59:02;23.60;61.00
1614;DHT22;800;48.824;9.346;2022-08-16T07:01:27;23.90;59.90
1614;DHT22;800;48.824;9.346;2022-08-16T07:03:53;23.90;59.20
1614;DHT22;800;48.824;9.346;2022-08-16T07:06:19;24.10;58.90
1614;DHT22;800;48.824;9.346;2022-08-16T07:08:46;24.30;58.00
1614;DHT22;800;48.824;9.346;2022-08-16T07:11:13;24.50;57.60
1614;DHT22;800;48.824;9.346;2022-08-16T07:13:39;24.70;57.20
1614;DHT22;800;48.824;9.346;2022-08-16T07:16:06;24.90;56.60
1614;DHT22;800;48.824;9.346;2022-08-16T07:18:40;24.70;57.10
1614;DHT22;800;48.824;9.346;2022-08-16T07:21:07;25.00;56.80
1614;DHT22;800;48.824;9.346;2022-08-16T07:23:34;25.20;56.20
1614;DHT22;800;48.824;9.346;2022-08-16T07:26:03;25.60;55.70
1614;DHT22;800;48.824;9.346;2022-08-16T07:28:29;25.70;55.00
1614;DHT22;800;48.824;9.346;2022-08-16T07:30:55;25.90;54.50
1614;DHT22;800;48.824;9.346;2022-08-16T07:33:21;26.10;53.90
1614;DHT22;800;48.824;9.346;2022-08-16T07:35:46;26.30;53.50
1614;DHT22;800;48.824;9.346;2022-08-16T07:38:12;26.40;53.40
1614;DHT22;800;48.824;9.346;2022-08-16T07:40:38;26.60;53.20
1614;DHT22;800;48.824;9.346;2022-08-16T07:43:04;26.80;52.50
1614;DHT22;800;48.824;9.346;2022-08-16T07:45:30;26.80;52.50
1614;DHT22;800;48.824;9.346;2022-08-16T07:47:58;27.00;51.90
1614;DHT22;800;48.824;9.346;2022-08-16T07:50:24;27.30;51.40
1614;DHT22;800;48.824;9.346;2022-08-16T07:52:50;27.60;50.60
1614;DHT22;800;48.824;9.346;2022-08-16T07:55:16;27.80;49.60
1614;DHT22;800;48.824;9.346;2022-08-16T07:57:43;28.00;49.50
1614;DHT22;800;48.824;9.346;2022-08-16T08:00:09;28.10;48.70
1614;DHT22;800;48.824;9.346;2022-08-16T08:02:35;28.20;48.10
1614;DHT22;800;48.824;9.346;2022-08-16T08:05:02;28.10;48.50
1614;DHT22;800;48.824;9.346;2022-08-16T08:07:28;28.00;48.50
1614;DHT22;800;48.824;9.346;2022-08-16T08:09:55;28.30;48.30
1614;DHT22;800;48.824;9.346;2022-08-16T08:12:21;28.10;48.00
1614;DHT22;800;48.824;9.346;2022-08-16T08:14:47;28.40;47.80
1614;DHT22;800;48.824;9.346;2022-08-16T08:17:14;28.70;47.40
1614;DHT22;800;48.824;9.346;2022-08-16T08:19:39;28.90;46.20
1614;DHT22;800;48.824;9.346;2022-08-16T08:22:06;29.00;46.10
1614;DHT22;800;48.824;9.346;2022-08-16T08:24:32;29.30;45.40
1614;DHT22;800;48.824;9.346;2022-08-16T08:27:02;29.40;44.90
1614;DHT22;800;48.824;9.346;2022-08-16T08:29:28;29.50;44.90
1614;DHT22;800;48.824;9.346;2022-08-16T08:31:54;29.60;44.00
1614;DHT22;800;48.824;9.346;2022-08-16T08:34:20;29.70;43.60
1614;DHT22;800;48.824;9.346;2022-08-16T08:36:47;29.60;43.10
1614;DHT22;800;48.824;9.346;2022-08-16T08:39:13;29.80;43.60
1614;DHT22;800;48.824;9.346;2022-08-16T08:41:43;30.00;42.80
1614;DHT22;800;48.824;9.346;2022-08-16T08:44:09;30.00;43.00
1614;DHT22;800;48.824;9.346;2022-08-16T08:46:35;30.20;42.00
1614;DHT22;800;48.824;9.346;2022-08-16T08:49:01;30.40;41.90
1614;DHT22;800;48.824;9.346;2022-08-16T08:51:27;30.60;41.60
1614;DHT22;800;48.824;9.346;2022-08-16T08:53:53;30.80;41.20
1614;DHT22;800;48.824;9.346;2022-08-16T08:56:19;30.80;41.20
1614;DHT22;800;48.824;9.346;2022-08-16T08:58:45;30.80;41.20
1614;DHT22;800;48.824;9.346;2022-08-16T09:01:10;30.80;40.90
1614;DHT22;800;48.824;9.346;2022-08-16T09:03:37;31.00;40.80
1614;DHT22;800;48.824;9.346;2022-08-16T09:06:04;31.20;40.00
1614;DHT22;800;48.824;9.346;2022-08-16T09:08:30;31.50;39.80
1614;DHT22;800;48.824;9.346;2022-08-16T09:10:57;31.70;39.40
1614;DHT22;800;48.824;9.346;2022-08-16T09:13:24;31.40;39.20
1614;DHT22;800;48.824;9.346;2022-08-16T09:15:54;31.60;38.70
1614;DHT22;800;48.824;9.346;2022-08-16T09:18:21;31.90;38.70
1614;DHT22;800;48.824;9.346;2022-08-16T09:20:47;32.00;38.40
1614;DHT22;800;48.824;9.346;2022-08-16T09:23:13;32.10;38.30
1614;DHT22;800;48.824;9.346;2022-08-16T09:25:39;31.70;38.20
1614;DHT22;800;48.824;9.346;2022-08-16T09:28:05;31.50;39.00
1614;DHT22;800;48.824;9.346;2022-08-16T09:30:31;31.60;38.70
1614;DHT22;800;48.824;9.346;2022-08-16T09:33:02;31.90;38.30
1614;DHT22;800;48.824;9.346;2022-08-16T09:35:28;32.00;38.30
1614;DHT22;800;48.824;9.346;2022-08-16T09:37:54;32.10;37.80
1614;DHT22;800;48.824;9.346;2022-08-16T09:40:21;32.20;37.60
1614;DHT22;800;48.824;9.346;2022-08-16T09:42:47;32.50;37.40
1614;DHT22;800;48.824;9.346;2022-08-16T09:45:13;32.60;36.70
1614;DHT22;800;48.824;9.346;2022-08-16T09:47:39;32.70;36.30
1614;DHT22;800;48.824;9.346;2022-08-16T09:50:13;32.80;36.50
1614;DHT22;800;48.824;9.346;2022-08-16T09:52:39;32.90;36.20
1614;DHT22;800;48.824;9.346;2022-08-16T09:55:07;32.90;36.20
1614;DHT22;800;48.824;9.346;2022-08-16T09:57:38;32.90;36.10
1614;DHT22;800;48.824;9.346;2022-08-16T10:00:11;32.90;36.10
1614;DHT22;800;48.824;9.346;2022-08-16T10:02:37;32.80;36.40
1614;DHT22;800;48.824;9.346;2022-08-16T10:05:04;32.90;36.10
1614;DHT22;800;48.824;9.346;2022-08-16T10:07:30;33.00;36.40
1614;DHT22;800;48.824;9.346;2022-08-16T10:09:56;33.10;36.30
1614;DHT22;800;48.824;9.346;2022-08-16T10:12:26;33.00;35.70
1614;DHT22;800;48.824;9.346;2022-08-16T10:15:13;33.00;36.20
1614;DHT22;800;48.824;9.346;2022-08-16T10:17:38;33.00;36.00
1614;DHT22;800;48.824;9.346;2022-08-16T10:20:07;32.80;36.20
1614;DHT22;800;48.824;9.346;2022-08-16T10:22:35;32.70;36.30
1614;DHT22;800;48.824;9.346;2022-08-16T10:25:02;33.00;36.10
1614;DHT22;800;48.824;9.346;2022-08-16T10:27:27;33.20;35.40
1614;DHT22;800;48.824;9.346;2022-08-16T10:29:53;33.40;35.20
1614;DHT22;800;48.824;9.346;2022-08-16T10:32:19;33.60;34.60
1614;DHT22;800;48.824;9.346;2022-08-16T10:34:45;33.60;34.60
1614;DHT22;800;48.824;9.346;2022-08-16T10:37:11;33.50;34.50
1614;DHT22;800;48.824;9.346;2022-08-16T10:39:37;33.40;34.30
1614;DHT22;800;48.824;9.346;2022-08-16T10:42:05;33.20;33.90
1614;DHT22;800;48.824;9.346;2022-08-16T10:44:31;32.70;34.40
1614;DHT22;800;48.824;9.346;2022-08-16T10:46:56;32.50;35.10
1614;DHT22;800;48.824;9.346;2022-08-16T10:49:22;32.70;35.10
1614;DHT22;800;48.824;9.346;2022-08-16T10:51:48;32.80;35.30
1614;DHT22;800;48.824;9.346;2022-08-16T10:54:14;32.90;34.80
1614;DHT22;800;48.824;9.346;2022-08-16T10:56:39;33.00;34.40
1614;DHT22;800;48.824;9.346;2022-08-16T10:59:05;32.80;34.50
1614;DHT22;800;48.824;9.346;2022-08-16T11:01:31;32.80;34.60
1614;DHT22;800;48.824;9.346;2022-08-16T11:03:57;32.90;34.70
1614;DHT22;800;48.824;9.346;2022-08-16T11:06:23;32.90;34.70
1614;DHT22;800;48.824;9.346;2022-08-16T11:08:49;32.90;34.70
1614;DHT22;800;48.824;9.346;2022-08-16T11:11:15;33.00;34.90
1614;DHT22;800;48.824;9.346;2022-08-16T11:13:41;33.00;34.90
1614;DHT22;800;48.824;9.346;2022-08-16T11:16:08;33.00;34.40
1614;DHT22;800;48.824;9.346;2022-08-16T11:18:34;33.10;35.10
1614;DHT22;800;48.824;9.346;2022-08-16T11:21:00;33.30;34.60
1614;DHT22;800;48.824;9.346;2022-08-16T11:23:26;32.80;34.70
1614;DHT22;800;48.824;9.346;2022-08-16T11:25:53;32.50;35.50
1614;DHT22;800;48.824;9.346;2022-08-16T11:28:19;32.20;36.10
1614;DHT22;800;48.824;9.346;2022-08-16T11:30:45;32.40;36.50
1614;DHT22;800;48.824;9.346;2022-08-16T11:33:11;32.60;35.10
1614;DHT22;800;48.824;9.346;2022-08-16T11:35:38;32.80;34.90
1614;DHT22;800;48.824;9.346;2022-08-16T11:38:16;32.50;35.50
1614;DHT22;800;48.824;9.346;2022-08-16T11:40:48;32.70;35.40
1614;DHT22;800;48.824;9.346;2022-08-16T11:43:18;33.10;34.90
1614;DHT22;800;48.824;9.346;2022-08-16T11:45:46;33.40;33.90
1614;DHT22;800;48.824;9.346;2022-08-16T11:48:12;33.50;33.90
1614;DHT22;800;48.824;9.346;2022-08-16T11:50:40;33.60;33.20
1614;DHT22;800;48.824;9.346;2022-08-16T11:53:06;33.90;33.20
1614;DHT22;800;48.824;9.346;2022-08-16T11:55:33;34.10;32.60
1614;DHT22;800;48.824;9.346;2022-08-16T11:58:00;34.30;32.40
1614;DHT22;800;48.824;9.346;2022-08-16T12:00:28;34.60;31.90
1614;DHT22;800;48.824;9.346;2022-08-16T12:02:54;34.40;31.50
1614;DHT22;800;48.824;9.346;2022-08-16T12:05:20;34.40;31.80
1614;DHT22;800;48.824;9.346;2022-08-16T12:07:46;34.80;31.00
1614;DHT22;800;48.824;9.346;2022-08-16T12:10:15;35.20;30.90
1614;DHT22;800;48.824;9.346;2022-08-16T12:12:42;35.60;30.10
1614;DHT22;800;48.824;9.346;2022-08-16T12:15:09;35.70;30.10
1614;DHT22;800;48.824;9.346;2022-08-16T12:17:36;35.80;30.00
1614;DHT22;800;48.824;9.346;2022-08-16T12:20:07;36.00;30.00
1614;DHT22;800;48.824;9.346;2022-08-16T12:22:35;36.10;29.60
1614;DHT22;800;48.824;9.346;2022-08-16T12:25:03;36.30;29.50
1614;DHT22;800;48.824;9.346;2022-08-16T12:27:29;36.30;29.50
1614;DHT22;800;48.824;9.346;2022-08-16T12:29:56;36.50;29.00
1614;DHT22;800;48.824;9.346;2022-08-16T12:32:21;36.60;28.90
1614;DHT22;800;48.824;9.346;2022-08-16T12:34:47;36.60;28.70
1614;DHT22;800;48.824;9.346;2022-08-16T12:37:13;36.30;29.00
1614;DHT22;800;48.824;9.346;2022-08-16T12:39:40;36.20;29.00
1614;DHT22;800;48.824;9.346;2022-08-16T12:42:05;36.20;28.90
1614;DHT22;800;48.824;9.346;2022-08-16T12:44:34;36.20;29.10
1614;DHT22;800;48.824;9.346;2022-08-16T12:47:00;35.60;29.20
1614;DHT22;800;48.824;9.346;2022-08-16T12:49:45;35.40;29.70
1614;DHT22;800;48.824;9.346;2022-08-16T12:52:11;35.50;29.90
1614;DHT22;800;48.824;9.346;2022-08-16T12:54:36;35.50;29.00
1614;DHT22;800;48.824;9.346;2022-08-16T12:57:06;35.40;29.70
1614;DHT22;800;48.824;9.346;2022-08-16T12:59:32;35.60;29.20
1614;DHT22;800;48.824;9.346;2022-08-16T13:01:59;35.80;29.10
1614;DHT22;800;48.824;9.346;2022-08-16T13:04:27;36.00;28.80
1614;DHT22;800;48.824;9.346;2022-08-16T13:06:53;36.20;28.80
1614;DHT22;800;48.824;9.346;2022-08-16T13:09:21;35.90;28.80
1614;DHT22;800;48.824;9.346;2022-08-16T13:11:59;35.80;29.10
1614;DHT22;800;48.824;9.346;2022-08-16T13:14:36;36.00;29.20
1614;DHT22;800;48.824;9.346;2022-08-16T13:17:04;36.20;29.30
1614;DHT22;800;48.824;9.346;2022-08-16T13:19:30;36.40;28.60
1614;DHT22;800;48.824;9.346;2022-08-16T13:21:56;36.60;28.20
1614;DHT22;800;48.824;9.346;2022-08-16T13:24:21;36.70;28.20
1614;DHT22;800;48.824;9.346;2022-08-16T13:26:47;36.80;27.90
1614;DHT22;800;48.824;9.346;2022-08-16T13:29:12;36.90;28.40
1614;DHT22;800;48.824;9.346;2022-08-16T13:31:38;37.10;27.50
1614;DHT22;800;48.824;9.346;2022-08-16T13:34:04;37.10;27.40
1614;DHT22;800;48.824;9.346;2022-08-16T13:36:29;37.10;27.20
1614;DHT22;800;48.824;9.346;2022-08-16T13:38:55;37.10;27.20
1614;DHT22;800;48.824;9.346;2022-08-16T13:41:21;37.00;27.10
1614;DHT22;800;48.824;9.346;2022-08-16T13:43:47;37.10;27.30
1614;DHT22;800;48.824;9.346;2022-08-16T13:46:13;37.30;27.20
1614;DHT22;800;48.824;9.346;2022-08-16T13:48:40;37.30;26.80
1614;DHT22;800;48.824;9.346;2022-08-16T13:51:05;37.20;26.70
1614;DHT22;800;48.824;9.346;2022-08-16T13:53:31;37.00;27.00
1614;DHT22;800;48.824;9.346;2022-08-16T13:55:57;37.20;27.00
1614;DHT22;800;48.824;9.346;2022-08-16T13:58:23;37.40;27.20
1614;DHT22;800;48.824;9.346;2022-08-16T14:00:49;37.40;27.40
1614;DHT22;800;48.824;9.346;2022-08-16T14:03:16;37.60;27.10
1614;DHT22;800;48.824;9.346;2022-08-16T14:05:42;37.70;26.60
1614;DHT22;800;48.824;9.346;2022-08-16T14:08:07;37.80;26.10
1614;DHT22;800;48.824;9.346;2022-08-16T14:10:33;37.90;26.10
1614;DHT22;800;48.824;9.346;2022-08-16T14:12:59;38.10;25.90
1614;DHT22;800;48.824;9.346;2022-08-16T14:15:25;38.10;25.90
1614;DHT22;800;48.824;9.346;2022-08-16T14:17:51;38.20;25.90
1614;DHT22;800;48.824;9.346;2022-08-16T14:20:16;38.00;26.00
1614;DHT22;800;48.824;9.346;2022-08-16T14:22:42;38.20;25.90
1614;DHT22;800;48.824;9.346;2022-08-16T14:25:15;38.30;25.90
1614;DHT22;800;48.824;9.346;2022-08-16T14:27:41;38.50;25.50
1614;DHT22;800;48.824;9.346;2022-08-16T14:30:09;38.70;25.40
1614;DHT22;800;48.824;9.346;2022-08-16T14:32:37;38.70;25.60
1614;DHT22;800;48.824;9.346;2022-08-16T14:35:09;38.80;25.30
1614;DHT22;800;48.824;9.346;2022-08-16T14:37:37;38.50;25.10
1614;DHT22;800;48.824;9.346;2022-08-16T14:40:05;38.60;25.10
1614;DHT22;800;48.824;9.346;2022-08-16T14:42:31;38.50;25.30
1614;DHT22;800;48.824;9.346;2022-08-16T14:44:57;38.50;25.40
1614;DHT22;800;48.824;9.346;2022-08-16T14:47:22;38.30;25.30
1614;DHT22;800;48.824;9.346;2022-08-16T14:49:48;38.00;25.60
1614;DHT22;800;48.824;9.346;2022-08-16T14:52:18;38.10;25.70
1614;DHT22;800;48.824;9.346;2022-08-16T14:54:46;38.20;25.70
1614;DHT22;800;48.824;9.346;2022-08-16T14:57:13;38.30;25.40
1614;DHT22;800;48.824;9.346;2022-08-16T14:59:39;38.20;25.50
1614;DHT22;800;48.824;9.346;2022-08-16T15:02:14;38.10;25.70
1614;DHT22;800;48.824;9.346;2022-08-16T15:04:40;38.20;25.60
1614;DHT22;800;48.824;9.346;2022-08-16T15:07:08;38.20;25.50
1614;DHT22;800;48.824;9.346;2022-08-16T15:09:34;38.30;25.50
1614;DHT22;800;48.824;9.346;2022-08-16T15:12:26;38.00;25.40
1614;DHT22;800;48.824;9.346;2022-08-16T15:14:53;37.80;25.80
1614;DHT22;800;48.824;9.346;2022-08-16T15:17:21;37.60;25.90
1614;DHT22;800;48.824;9.346;2022-08-16T15:19:47;36.60;26.80
1614;DHT22;800;48.824;9.346;2022-08-16T15:22:21;36.90;26.90
1614;DHT22;800;48.824;9.346;2022-08-16T15:24:48;37.20;26.30
1614;DHT22;800;48.824;9.346;2022-08-16T15:27:13;37.50;25.90
1614;DHT22;800;48.824;9.346;2022-08-16T15:29:40;37.70;25.80
1614;DHT22;800;48.824;9.346;2022-08-16T15:32:05;37.70;25.70
1614;DHT22;800;48.824;9.346;2022-08-16T15:34:31;37.80;25.60
1614;DHT22;800;48.824;9.346;2022-08-16T15:36:57;38.00;25.50
1614;DHT22;800;48.824;9.346;2022-08-16T15:39:22;38.10;25.30
1614;DHT22;800;48.824;9.346;2022-08-16T15:44:19;38.10;25.20
1614;DHT22;800;48.824;9.346;2022-08-16T15:46:46;38.00;25.20
1614;DHT22;800;48.824;9.346;2022-08-16T15:49:12;37.90;25.50
1614;DHT22;800;48.824;9.346;2022-08-16T15:51:39;37.90;25.90
1614;DHT22;800;48.824;9.346;2022-08-16T15:54:05;37.90;25.80
1614;DHT22;800;48.824;9.346;2022-08-16T15:56:31;38.00;25.90
1614;DHT22;800;48.824;9.346;2022-08-16T15:58:59;37.80;25.50
1614;DHT22;800;48.824;9.346;2022-08-16T16:01:24;37.80;26.00
1614;DHT22;800;48.824;9.346;2022-08-16T16:03:50;37.90;25.90
1614;DHT22;800;48.824;9.346;2022-08-16T16:06:15;38.00;25.70
1614;DHT22;800;48.824;9.346;2022-08-16T16:08:45;38.00;25.80
1614;DHT22;800;48.824;9.346;2022-08-16T16:14:33;37.70;25.60
1614;DHT22;800;48.824;9.346;2022-08-16T16:16:59;37.70;26.00
1614;DHT22;800;48.824;9.346;2022-08-16T16:19:29;37.60;26.00
1614;DHT22;800;48.824;9.346;2022-08-16T16:21:55;37.60;25.60
1614;DHT22;800;48.824;9.346;2022-08-16T16:24:21;37.60;25.90
1614;DHT22;800;48.824;9.346;2022-08-16T16:26:46;37.60;25.80
1614;DHT22;800;48.824;9.346;2022-08-16T16:29:12;37.70;25.80
1614;DHT22;800;48.824;9.346;2022-08-16T16:31:39;37.50;26.00